Time;durP1;ratioP1;P1;durP2;ratioP2;P2;SDS_P1;SDS_P2;PMS_P1;PMS_P2;Temp;Humidity;BMP_temperature;BMP_pressure;BME280_temperature;BME280_humidity;BME280_pressure;Samples;Min_cycle;Max_cycle;Signal;HPM_P1;HPM_P2
2022/12/23 00:00:16;;;;;;;10.85;4.65;;;10.30;99.90;;;;;;5088984;28;20547;-50
2022/12/23 00:02:42;;;;;;;10.80;5.25;;;10.40;99.90;;;;;;5087240;28;20039;-48
2022/12/23 00:05:08;;;;;;;9.75;3.75;;;10.40;99.90;;;;;;5088144;28;20024;-51
2022/12/23 00:07:33;;;;;;;7.05;3.97;;;10.40;99.90;;;;;;5088533;28;20039;-49
2022/12/23 00:09:59;;;;;;;8.15;3.90;;;10.40;99.90;;;;;;5087583;28;20031;-47
2022/12/23 00:15:10;;;;;;;7.90;3.10;;;10.40;99.90;;;;;;5086661;28;20035;-49
2022/12/23 00:17:44;;;;;;;6.75;2.53;;;10.30;99.90;;;;;;5089115;28;20118;-52
2022/12/23 00:20:12;;;;;;;8.07;2.55;;;10.30;99.90;;;;;;5072578;28;20039;-49
2022/12/23 00:25:39;;;;;;;3.38;2.08;;;10.30;99.90;;;;;;5091797;28;20050;-50
2022/12/23 00:28:16;;;;;;;5.05;2.15;;;10.30;99.90;;;;;;5091805;28;20027;-48
2022/12/23 00:30:51;;;;;;;6.03;2.72;;;10.30;99.90;;;;;;5090264;28;20024;-48
2022/12/23 00:33:24;;;;;;;5.55;2.72;;;10.30;99.90;;;;;;5090857;28;20367;-50
2022/12/23 00:35:50;;;;;;;2.38;1.75;;;10.30;99.90;;;;;;5092483;28;20414;-51
2022/12/23 00:42:52;;;;;;;4.68;2.22;;;10.20;99.90;;;;;;5057367;28;20094;-53
2022/12/23 00:43:46;;;;;;;3.75;2.00;;;10.30;99.90;;;;;;5090724;28;20086;-46
2022/12/23 00:46:12;;;;;;;3.33;2.10;;;10.40;99.90;;;;;;5091416;28;20031;-47
2022/12/23 00:51:21;;;;;;;4.47;2.45;;;10.30;99.90;;;;;;5092206;28;20541;-50
2022/12/23 00:53:47;;;;;;;12.85;5.93;;;10.30;99.90;;;;;;5091317;28;20028;-47
2022/12/23 00:56:13;;;;;;;7.97;3.88;;;10.40;99.90;;;;;;5091652;28;20035;-51
2022/12/23 00:58:38;;;;;;;7.38;3.03;;;10.50;99.90;;;;;;5073567;28;20024;-51
2022/12/23 01:06:32;;;;;;;7.15;3.67;;;10.50;99.90;;;;;;5091672;28;20470;-47
2022/12/23 01:08:57;;;;;;;6.18;3.17;;;10.50;99.90;;;;;;5091291;28;20020;-50
2022/12/23 01:11:23;;;;;;;6.97;3.35;;;10.50;99.90;;;;;;5091251;28;20487;-50
2022/12/23 01:13:48;;;;;;;6.85;3.00;;;10.50;99.90;;;;;;5090535;28;20028;-48
2022/12/23 01:16:14;;;;;;;4.13;3.00;;;10.40;99.90;;;;;;5091449;28;20050;-48
2022/12/23 01:18:40;;;;;;;8.60;2.95;;;10.40;99.90;;;;;;5091823;28;20391;-51
2022/12/23 01:21:09;;;;;;;5.72;2.78;;;10.50;99.90;;;;;;5093154;28;20076;-49
2022/12/23 01:23:35;;;;;;;4.15;3.75;;;10.50;99.90;;;;;;5079733;28;20055;-48
2022/12/23 01:26:03;;;;;;;5.72;3.70;;;10.50;99.90;;;;;;5098292;22;20028;-48
2022/12/23 01:28:30;;;;;;;4.57;2.72;;;10.60;99.90;;;;;;5073057;28;20029;-52
2022/12/23 01:30:57;;;;;;;8.68;4.07;;;10.50;99.90;;;;;;5072934;28;20031;-53
2022/12/23 01:33:23;;;;;;;6.75;3.58;;;10.50;99.90;;;;;;5055781;28;20020;-53
2022/12/23 01:35:48;;;;;;;7.80;4.28;;;10.60;99.90;;;;;;5074481;28;20389;-51
2022/12/23 01:38:14;;;;;;;7.95;3.75;;;10.60;99.90;;;;;;5074130;28;20512;-51
2022/12/23 01:40:42;;;;;;;6.57;3.40;;;10.60;99.90;;;;;;5074676;28;20024;-50
2022/12/23 01:43:17;;;;;;;6.95;4.38;;;10.60;99.90;;;;;;5073612;28;20131;-54
2022/12/23 01:45:43;;;;;;;6.25;4.35;;;10.60;99.90;;;;;;5074486;28;20028;-54
2022/12/23 01:48:23;;;;;;;8.02;4.88;;;10.60;99.90;;;;;;5074244;28;20051;-55
2022/12/23 01:51:03;;;;;;;10.57;5.13;;;10.60;99.90;;;;;;5073995;28;20021;-51
2022/12/23 01:53:32;;;;;;;9.70;4.95;;;10.60;99.90;;;;;;5073429;28;20032;-50
2022/12/23 01:56:14;;;;;;;6.50;4.95;;;10.60;99.90;;;;;;5074004;28;20052;-54
2022/12/23 01:58:51;;;;;;;11.32;5.72;;;10.60;99.90;;;;;;5074091;28;20035;-50
2022/12/23 02:04:07;;;;;;;13.85;5.95;;;10.50;99.90;;;;;;5073597;28;20035;-50
2022/12/23 02:09:28;;;;;;;8.90;6.10;;;10.50;99.90;;;;;;5073745;28;20035;-51
2022/12/23 02:12:20;;;;;;;9.85;6.20;;;10.40;99.90;;;;;;5055600;28;20017;-51
2022/12/23 02:17:56;;;;;;;11.63;7.13;;;10.40;99.90;;;;;;5074289;28;20055;-52
2022/12/23 02:20:46;;;;;;;12.57;7.93;;;10.40;99.90;;;;;;5074067;28;20055;-51
2022/12/23 02:23:15;;;;;;;9.52;7.07;;;10.50;99.90;;;;;;5073313;28;20101;-48
2022/12/23 02:25:59;;;;;;;7.40;5.82;;;10.40;99.90;;;;;;5073823;28;20029;-50
2022/12/23 02:29:02;;;;;;;5.95;5.38;;;10.40;99.90;;;;;;5073725;28;20036;-50
2022/12/23 02:32:05;;;;;;;7.30;6.55;;;10.50;99.90;;;;;;5072307;28;20157;-51
2022/12/23 02:35:07;;;;;;;9.48;6.40;;;10.40;99.90;;;;;;5073882;28;20025;-51
2022/12/23 02:37:56;;;;;;;10.48;6.68;;;10.40;99.90;;;;;;5073444;28;20381;-52
2022/12/23 02:40:34;;;;;;;9.18;6.25;;;10.30;99.90;;;;;;5073683;28;20036;-50
2022/12/23 02:43:24;;;;;;;9.38;6.10;;;10.40;99.90;;;;;;5073018;28;20488;-51
2022/12/23 02:46:14;;;;;;;6.97;5.28;;;10.30;99.90;;;;;;5074349;28;20451;-53
2022/12/23 02:48:48;;;;;;;5.90;5.30;;;10.30;99.90;;;;;;5073671;28;20507;-50
2022/12/23 02:51:14;;;;;;;8.55;6.00;;;10.40;99.90;;;;;;5073808;28;20107;-51
2022/12/23 02:53:47;;;;;;;8.38;6.32;;;10.40;99.90;;;;;;5072902;28;20048;-52
2022/12/23 02:56:16;;;;;;;9.38;6.50;;;10.40;99.90;;;;;;5073668;28;20036;-54
2022/12/23 02:58:47;;;;;;;9.35;6.90;;;10.30;99.90;;;;;;5073137;28;20491;-54
2022/12/23 03:01:16;;;;;;;14.85;8.73;;;10.30;99.90;;;;;;5072924;28;20032;-52
2022/12/23 03:03:43;;;;;;;8.30;6.25;;;10.20;99.90;;;;;;5071902;28;20059;-52
2022/12/23 03:06:23;;;;;;;7.72;6.13;;;10.20;99.90;;;;;;5072923;28;20021;-51
2022/12/23 03:08:54;;;;;;;7.60;5.28;;;10.10;99.90;;;;;;5072921;28;20020;-52
2022/12/23 03:11:20;;;;;;;6.60;5.53;;;10.10;99.90;;;;;;5072991;28;20104;-50
2022/12/23 03:14:00;;;;;;;8.27;5.88;;;10.10;99.90;;;;;;5072018;28;20059;-50
2022/12/23 03:17:00;;;;;;;7.10;5.70;;;10.10;99.90;;;;;;5073807;28;20025;-53
2022/12/23 03:19:31;;;;;;;6.82;5.47;;;10.00;99.90;;;;;;5072828;28;20020;-50
2022/12/23 03:22:18;;;;;;;6.75;5.55;;;9.90;99.90;;;;;;5071781;28;20387;-52
2022/12/23 03:25:07;;;;;;;7.85;5.93;;;9.90;99.90;;;;;;5072488;28;20031;-51
2022/12/23 03:28:00;;;;;;;6.25;5.28;;;9.90;99.90;;;;;;5030949;28;20127;-49
2022/12/23 03:30:26;;;;;;;10.20;5.47;;;9.90;99.90;;;;;;5056434;28;20103;-49
2022/12/23 03:33:03;;;;;;;6.28;5.35;;;9.90;99.90;;;;;;5072023;28;20480;-52
2022/12/23 03:35:34;;;;;;;7.22;5.28;;;9.90;99.90;;;;;;5072624;28;20035;-53
2022/12/23 03:38:01;;;;;;;8.90;5.75;;;9.80;99.90;;;;;;5072229;28;20060;-52
2022/12/23 03:40:33;;;;;;;6.28;5.57;;;9.90;99.90;;;;;;5072560;28;20080;-52
2022/12/23 03:43:06;;;;;;;6.80;6.10;;;9.90;99.90;;;;;;5071979;28;20020;-52
2022/12/23 03:45:37;;;;;;;9.63;5.88;;;9.90;99.90;;;;;;5072654;28;20036;-49
2022/12/23 03:48:07;;;;;;;8.02;6.78;;;9.80;99.90;;;;;;5072440;28;20020;-49
2022/12/23 03:50:33;;;;;;;7.85;6.20;;;9.80;99.90;;;;;;5072181;28;20024;-48
2022/12/23 03:53:10;;;;;;;8.85;6.63;;;9.80;99.90;;;;;;5071804;28;20020;-50
2022/12/23 03:55:44;;;;;;;9.85;6.65;;;9.70;99.90;;;;;;5072351;28;20021;-51
2022/12/23 03:58:50;;;;;;;12.10;5.90;;;9.70;99.90;;;;;;5072110;28;20442;-51
2022/12/23 04:01:38;;;;;;;6.30;5.70;;;9.60;99.90;;;;;;5054704;28;20040;-53
2022/12/23 04:04:10;;;;;;;6.93;6.10;;;9.50;99.90;;;;;;5071466;28;20020;-52
2022/12/23 04:06:50;;;;;;;7.72;5.75;;;9.50;99.90;;;;;;5071498;28;20499;-52
2022/12/23 04:09:18;;;;;;;9.30;6.13;;;9.40;99.90;;;;;;5071638;28;20024;-52
2022/12/23 04:11:44;;;;;;;10.55;5.85;;;9.30;99.90;;;;;;5071650;28;21204;-53
2022/12/23 04:14:15;;;;;;;8.80;6.28;;;9.30;99.90;;;;;;5071110;28;20059;-52
2022/12/23 04:16:40;;;;;;;8.00;5.90;;;9.30;99.90;;;;;;5071989;28;20445;-49
2022/12/23 04:19:06;;;;;;;6.32;5.13;;;9.20;99.90;;;;;;5072028;28;20025;-50
2022/12/23 04:21:31;;;;;;;5.78;4.35;;;9.20;99.90;;;;;;5071824;28;20071;-53
2022/12/23 04:23:56;;;;;;;7.03;4.85;;;9.10;99.90;;;;;;5070895;28;20531;-53
2022/12/23 04:26:22;;;;;;;6.50;4.45;;;9.10;99.90;;;;;;5071427;28;20117;-49
2022/12/23 04:28:47;;;;;;;8.65;4.45;;;9.10;99.90;;;;;;5071458;28;20433;-54
2022/12/23 04:31:13;;;;;;;5.80;3.97;;;9.10;99.90;;;;;;5069721;28;20028;-55
2022/12/23 04:33:38;;;;;;;4.90;4.32;;;9.10;99.90;;;;;;5070912;28;20484;-50
2022/12/23 04:36:04;;;;;;;4.35;3.83;;;9.00;99.90;;;;;;5071076;28;20028;-50
2022/12/23 04:38:30;;;;;;;4.20;3.80;;;8.90;99.90;;;;;;5071671;28;20048;-54
2022/12/23 04:40:55;;;;;;;3.83;3.50;;;8.90;99.90;;;;;;5071176;28;20443;-53
2022/12/23 04:43:21;;;;;;;3.55;3.25;;;9.00;99.90;;;;;;5070468;28;20024;-50
2022/12/23 04:45:50;;;;;;;4.60;3.05;;;8.90;99.90;;;;;;5071150;28;20025;-53
2022/12/23 04:48:16;;;;;;;2.70;2.50;;;8.90;99.90;;;;;;5071133;28;20043;-51
2022/12/23 04:50:41;;;;;;;2.55;2.35;;;8.80;99.90;;;;;;5071146;28;20127;-53
2022/12/23 04:53:07;;;;;;;3.05;2.22;;;8.80;99.90;;;;;;5071066;28;20024;-50
2022/12/23 04:55:32;;;;;;;2.17;1.98;;;8.70;99.90;;;;;;5071113;28;20036;-53
2022/12/23 04:57:58;;;;;;;4.60;1.80;;;8.70;99.90;;;;;;5070969;28;20077;-52
2022/12/23 05:00:23;;;;;;;2.40;2.20;;;8.70;99.90;;;;;;5071441;28;20018;-52
2022/12/23 05:02:49;;;;;;;1.65;1.55;;;8.70;99.90;;;;;;5074342;28;20027;-53
2022/12/23 05:05:14;;;;;;;1.60;1.50;;;8.70;99.90;;;;;;5074728;28;20028;-51
2022/12/23 05:07:40;;;;;;;3.17;1.70;;;8.70;99.90;;;;;;5074629;28;20029;-50
2022/12/23 05:10:06;;;;;;;2.33;1.80;;;8.60;99.90;;;;;;5074885;28;20384;-51
2022/12/23 05:12:32;;;;;;;1.30;1.30;;;8.70;99.90;;;;;;5074019;28;20028;-51
2022/12/23 05:14:57;;;;;;;2.28;1.52;;;8.70;99.90;;;;;;5074832;28;20024;-55
2022/12/23 05:17:23;;;;;;;2.28;1.73;;;8.70;99.90;;;;;;5074534;28;20025;-54
2022/12/23 05:19:48;;;;;;;1.80;1.70;;;8.70;99.90;;;;;;5074664;28;20510;-50
2022/12/23 05:22:14;;;;;;;2.10;2.00;;;8.70;99.90;;;;;;5074103;28;20033;-51
2022/12/23 05:24:39;;;;;;;2.28;2.17;;;8.60;99.90;;;;;;5074590;28;20448;-52
2022/12/23 05:27:05;;;;;;;5.13;2.63;;;8.60;99.90;;;;;;5074454;28;20538;-50
2022/12/23 05:29:30;;;;;;;2.75;2.53;;;8.70;99.90;;;;;;5074622;28;20020;-51
2022/12/23 05:31:56;;;;;;;5.60;3.60;;;8.70;99.90;;;;;;5072750;28;20044;-51
2022/12/23 05:34:21;;;;;;;4.35;3.65;;;8.70;99.90;;;;;;5074522;28;20366;-51
2022/12/23 05:36:47;;;;;;;9.40;5.03;;;8.70;99.90;;;;;;5074358;28;20025;-50
2022/12/23 05:39:13;;;;;;;5.55;4.50;;;8.70;99.90;;;;;;5056436;28;20074;-52
2022/12/23 05:41:38;;;;;;;6.22;5.05;;;8.70;99.90;;;;;;5074220;28;20044;-55
2022/12/23 05:44:04;;;;;;;6.88;5.40;;;8.70;99.90;;;;;;5073379;28;20527;-52
2022/12/23 05:46:29;;;;;;;6.63;5.90;;;8.70;99.90;;;;;;5074642;28;20024;-52
2022/12/23 05:48:55;;;;;;;6.68;5.65;;;8.80;99.90;;;;;;5074345;28;20063;-54
2022/12/23 05:51:21;;;;;;;8.00;6.25;;;8.80;99.90;;;;;;5074103;28;20492;-56
2022/12/23 05:53:46;;;;;;;6.80;5.70;;;8.80;99.90;;;;;;5073555;28;20028;-52
2022/12/23 05:56:12;;;;;;;6.60;5.68;;;8.90;99.90;;;;;;5073865;28;20469;-50
2022/12/23 05:58:37;;;;;;;8.82;6.47;;;9.00;99.90;;;;;;5073803;28;20081;-50
2022/12/23 06:01:03;;;;;;;16.27;5.97;;;9.00;99.90;;;;;;5073895;28;20074;-54
2022/12/23 06:03:29;;;;;;;9.02;7.07;;;9.00;99.90;;;;;;5073078;28;20108;-51
2022/12/23 06:05:54;;;;;;;7.65;6.00;;;9.00;99.90;;;;;;5073704;28;20108;-52
2022/12/23 06:08:20;;;;;;;6.95;5.88;;;9.00;99.90;;;;;;5073831;28;20456;-50
2022/12/23 06:10:46;;;;;;;8.13;5.30;;;9.10;99.90;;;;;;5073932;28;20025;-52
2022/12/23 06:13:11;;;;;;;7.07;5.25;;;9.20;99.90;;;;;;5072602;28;20024;-51
2022/12/23 06:15:37;;;;;;;4.97;4.55;;;9.20;99.90;;;;;;5073807;28;20028;-50
2022/12/23 06:18:03;;;;;;;6.50;5.10;;;9.20;99.90;;;;;;5073756;28;20071;-52
2022/12/23 06:20:28;;;;;;;5.90;5.03;;;9.20;99.90;;;;;;5073787;28;20031;-52
2022/12/23 06:22:54;;;;;;;6.00;5.45;;;9.30;99.90;;;;;;5073000;28;20436;-50
2022/12/23 06:25:19;;;;;;;6.15;5.00;;;9.30;99.90;;;;;;5074236;28;20028;-52
2022/12/23 06:27:45;;;;;;;6.70;5.80;;;9.30;99.90;;;;;;5073409;28;20094;-53
2022/12/23 06:30:11;;;;;;;7.40;5.82;;;9.30;99.90;;;;;;5071917;28;20894;-50
2022/12/23 06:32:37;;;;;;;7.97;5.72;;;9.40;99.90;;;;;;5073165;28;20035;-55
2022/12/23 06:35:03;;;;;;;7.65;5.93;;;9.30;99.90;;;;;;5073571;28;20029;-52
2022/12/23 06:37:28;;;;;;;8.65;5.30;;;9.40;99.90;;;;;;5073438;28;20531;-51
2022/12/23 06:39:53;;;;;;;6.63;5.68;;;9.40;99.90;;;;;;5073544;28;20479;-54
2022/12/23 06:42:19;;;;;;;7.20;6.00;;;9.30;99.90;;;;;;5054616;28;20025;-51
2022/12/23 06:44:45;;;;;;;7.13;6.30;;;9.20;99.90;;;;;;5073594;28;20461;-51
2022/12/23 06:47:11;;;;;;;8.50;6.85;;;9.20;99.90;;;;;;5073327;28;20171;-49
2022/12/23 06:49:36;;;;;;;8.18;6.65;;;9.20;99.90;;;;;;5073277;28;20119;-53
2022/12/23 06:52:02;;;;;;;10.00;6.70;;;9.20;99.90;;;;;;5072217;28;20534;-48
2022/12/23 06:54:28;;;;;;;8.10;6.63;;;9.20;99.90;;;;;;5073162;28;20046;-52
2022/12/23 06:56:53;;;;;;;9.70;6.75;;;9.20;99.90;;;;;;5073110;28;20051;-50
2022/12/23 06:59:19;;;;;;;9.43;7.32;;;9.20;99.90;;;;;;5073073;28;20400;-54
2022/12/23 07:01:44;;;;;;;8.90;7.03;;;9.20;99.90;;;;;;5073205;28;20039;-51
2022/12/23 07:04:10;;;;;;;13.07;7.13;;;9.20;99.90;;;;;;5072576;28;20063;-49
2022/12/23 07:06:35;;;;;;;11.02;6.85;;;9.20;99.90;;;;;;5072853;28;20028;-50
2022/12/23 07:09:01;;;;;;;10.25;7.22;;;9.20;99.90;;;;;;5073239;28;20031;-55
2022/12/23 07:11:26;;;;;;;13.73;7.38;;;9.20;99.90;;;;;;5073034;28;20056;-49
2022/12/23 07:13:52;;;;;;;9.50;8.07;;;9.10;99.90;;;;;;5072307;28;20074;-52
2022/12/23 07:16:17;;;;;;;9.88;8.05;;;9.10;99.90;;;;;;5072708;28;20020;-50
2022/12/23 07:18:43;;;;;;;10.52;8.40;;;9.10;99.90;;;;;;5072550;28;20103;-51
2022/12/23 07:21:08;;;;;;;8.95;7.80;;;9.10;99.90;;;;;;5072319;28;20031;-53
2022/12/23 07:23:34;;;;;;;12.07;7.35;;;9.10;99.90;;;;;;5053571;28;20028;-49
2022/12/23 07:25:59;;;;;;;8.10;6.90;;;9.10;99.90;;;;;;5053724;28;20025;-53
2022/12/23 07:28:25;;;;;;;8.10;6.82;;;9.10;99.90;;;;;;5087445;22;20059;-45
2022/12/23 07:30:50;;;;;;;9.27;6.95;;;9.20;99.90;;;;;;5053249;28;20025;-45
2022/12/23 07:33:16;;;;;;;10.60;7.47;;;9.10;99.90;;;;;;5071291;28;20082;-46
2022/12/23 07:35:42;;;;;;;7.68;6.88;;;9.20;99.90;;;;;;5054290;28;20032;-48
2022/12/23 07:38:08;;;;;;;7.15;6.45;;;9.30;99.90;;;;;;5071726;28;20487;-47
2022/12/23 07:40:34;;;;;;;6.05;4.80;;;9.40;99.90;;;;;;5054107;28;20094;-46
2022/12/23 07:43:00;;;;;;;6.85;5.05;;;9.40;99.90;;;;;;5071285;28;20066;-44
2022/12/23 07:45:27;;;;;;;5.25;4.30;;;9.50;99.90;;;;;;5071723;28;20504;-47
2022/12/23 07:47:57;;;;;;;5.38;4.88;;;9.50;99.90;;;;;;5071887;28;20400;-49
2022/12/23 07:50:24;;;;;;;7.60;5.55;;;9.50;99.90;;;;;;5072089;28;20032;-50
2022/12/23 07:52:51;;;;;;;4.78;4.28;;;9.60;99.90;;;;;;5071165;28;20020;-45
2022/12/23 07:55:16;;;;;;;7.10;4.80;;;9.60;99.90;;;;;;5072151;28;20573;-46
2022/12/23 07:57:42;;;;;;;6.90;5.25;;;9.60;99.90;;;;;;5053627;28;20067;-45
2022/12/23 08:00:13;;;;;;;5.00;4.10;;;9.60;99.90;;;;;;5071767;28;20033;-51
2022/12/23 08:02:38;;;;;;;3.10;2.85;;;9.60;99.90;;;;;;5070899;28;20108;-45
2022/12/23 08:05:05;;;;;;;3.53;3.25;;;9.60;99.90;;;;;;5071159;28;20119;-50
2022/12/23 08:07:30;;;;;;;4.75;2.88;;;9.70;99.90;;;;;;5053322;28;20492;-47
2022/12/23 08:09:56;;;;;;;4.53;3.35;;;9.70;99.90;;;;;;5071407;28;20032;-50
2022/12/23 08:12:21;;;;;;;4.57;4.15;;;9.70;99.90;;;;;;5070947;28;20020;-48
2022/12/23 08:14:47;;;;;;;4.95;4.45;;;9.70;99.90;;;;;;5071723;28;20036;-45
2022/12/23 08:17:13;;;;;;;8.65;5.03;;;9.70;99.90;;;;;;5053371;28;20408;-46
2022/12/23 08:19:39;;;;;;;6.25;4.60;;;9.70;99.90;;;;;;5071922;28;20024;-46
2022/12/23 08:22:04;;;;;;;9.32;5.18;;;9.80;99.90;;;;;;5070623;28;20090;-47
2022/12/23 08:24:30;;;;;;;5.55;4.45;;;9.70;99.90;;;;;;5071519;28;20395;-50
2022/12/23 08:26:57;;;;;;;6.57;4.40;;;9.80;99.90;;;;;;5071519;28;20067;-45
2022/12/23 08:29:22;;;;;;;8.10;4.55;;;9.80;99.90;;;;;;5071191;28;20272;-46
2022/12/23 08:31:49;;;;;;;5.60;5.07;;;9.80;99.90;;;;;;5070315;28;20012;-47
2022/12/23 08:34:15;;;;;;;5.55;4.93;;;9.80;99.90;;;;;;5068936;28;20381;-46
2022/12/23 08:36:41;;;;;;;5.40;4.47;;;9.90;99.90;;;;;;5060127;28;20459;-47
2022/12/23 08:39:09;;;;;;;5.18;4.68;;;10.00;99.90;;;;;;5071312;28;20503;-46
2022/12/23 08:41:38;;;;;;;4.47;3.97;;;10.00;99.90;;;;;;5052810;28;20532;-48
2022/12/23 08:44:04;;;;;;;4.10;3.63;;;10.10;99.90;;;;;;5050391;28;20025;-45
2022/12/23 08:46:30;;;;;;;6.60;5.00;;;10.10;99.90;;;;;;5051601;28;20400;-43
2022/12/23 08:48:56;;;;;;;5.18;4.55;;;10.10;99.90;;;;;;5057805;28;20036;-46
2022/12/23 08:51:23;;;;;;;4.82;4.10;;;10.10;99.90;;;;;;5080672;28;20046;-47
2022/12/23 08:53:49;;;;;;;6.30;4.20;;;10.20;99.90;;;;;;5082706;28;20040;-45
2022/12/23 08:56:19;;;;;;;5.88;3.97;;;10.10;99.90;;;;;;5071127;28;20021;-46
2022/12/23 08:58:46;;;;;;;5.47;3.90;;;10.10;99.90;;;;;;5070549;28;20029;-44
2022/12/23 09:01:15;;;;;;;6.65;3.90;;;10.10;99.90;;;;;;5070910;28;20087;-44
2022/12/23 09:03:41;;;;;;;4.28;3.88;;;10.10;99.90;;;;;;5069940;28;20099;-48
2022/12/23 09:06:11;;;;;;;3.65;3.25;;;10.10;99.90;;;;;;5071039;28;20524;-49
2022/12/23 09:08:37;;;;;;;3.92;3.63;;;10.10;99.90;;;;;;5055231;28;20024;-49
2022/12/23 09:11:03;;;;;;;3.13;2.92;;;10.10;99.90;;;;;;5071072;28;20027;-46
2022/12/23 09:13:28;;;;;;;3.33;3.13;;;10.10;99.90;;;;;;5070264;28;20518;-47
2022/12/23 09:15:54;;;;;;;4.00;3.70;;;10.10;99.90;;;;;;5069747;28;20033;-45
2022/12/23 09:18:20;;;;;;;4.15;3.85;;;10.10;99.90;;;;;;5070344;28;20385;-48
2022/12/23 09:20:45;;;;;;;4.20;3.90;;;10.20;99.90;;;;;;5070972;28;20029;-48
2022/12/23 09:23:11;;;;;;;4.38;3.50;;;10.20;99.90;;;;;;5070054;28;20449;-47
2022/12/23 09:25:36;;;;;;;3.70;3.40;;;10.20;99.90;;;;;;5070456;28;20404;-41
2022/12/23 09:28:03;;;;;;;5.20;3.78;;;10.20;99.90;;;;;;5052621;28;20027;-47
2022/12/23 09:30:28;;;;;;;4.07;2.95;;;10.20;99.90;;;;;;5070730;28;20024;-44
2022/12/23 09:32:54;;;;;;;3.10;2.80;;;10.30;99.90;;;;;;5069970;28;20048;-47
2022/12/23 09:35:19;;;;;;;4.10;2.50;;;10.20;99.90;;;;;;5070681;28;20245;-45
2022/12/23 09:37:45;;;;;;;4.57;2.53;;;10.30;99.90;;;;;;5070690;28;20027;-45
2022/12/23 09:40:13;;;;;;;2.67;2.47;;;10.30;99.90;;;;;;5070748;28;20033;-46
2022/12/23 09:42:51;;;;;;;1.80;1.70;;;10.30;99.90;;;;;;5069951;28;20025;-42
2022/12/23 09:45:58;;;;;;;4.45;2.38;;;10.40;99.90;;;;;;5071082;28;20107;-44
2022/12/23 09:48:26;;;;;;;2.38;2.20;;;10.50;99.90;;;;;;5071789;28;20027;-45
2022/12/23 09:50:52;;;;;;;1.90;1.80;;;10.60;99.90;;;;;;5072863;28;20152;-45
2022/12/23 09:53:21;;;;;;;1.77;1.67;;;10.60;99.90;;;;;;5073415;28;20099;-46
2022/12/23 09:55:53;;;;;;;1.98;1.88;;;10.60;99.90;;;;;;5073885;28;20025;-48
2022/12/23 09:58:30;;;;;;;2.20;2.10;;;10.60;99.90;;;;;;5074031;28;20459;-43
2022/12/23 10:01:16;;;;;;;2.22;2.08;;;10.70;99.90;;;;;;5073950;28;20028;-46
2022/12/23 10:04:27;;;;;;;4.13;2.50;;;10.70;99.90;;;;;;5073171;28;20025;-40
2022/12/23 10:07:07;;;;;;;4.35;2.90;;;10.70;99.90;;;;;;5073663;28;20033;-47
2022/12/23 10:09:38;;;;;;;6.30;4.43;;;10.70;99.90;;;;;;5073916;28;20021;-45
2022/12/23 10:12:28;;;;;;;3.50;3.20;;;10.70;99.90;;;;;;5062288;28;20091;-49
2022/12/23 10:14:57;;;;;;;4.57;2.92;;;10.70;99.90;;;;;;5073385;28;20033;-48
2022/12/23 10:17:42;;;;;;;4.10;3.80;;;10.70;99.90;;;;;;5068592;28;20029;-49
2022/12/23 10:20:17;;;;;;;3.30;3.05;;;10.70;99.90;;;;;;5073461;28;20021;-50
2022/12/23 10:22:44;;;;;;;3.67;3.38;;;10.60;99.90;;;;;;5065433;28;20037;-47
2022/12/23 10:25:24;;;;;;;5.65;3.05;;;10.60;99.90;;;;;;5053439;28;20079;-47
2022/12/23 10:27:50;;;;;;;3.78;3.30;;;10.50;99.90;;;;;;5053418;28;20385;-46
2022/12/23 10:30:18;;;;;;;3.80;3.50;;;10.50;99.90;;;;;;5053220;28;20044;-46
2022/12/23 10:33:04;;;;;;;4.65;3.40;;;10.50;99.90;;;;;;5052522;28;20393;-46
2022/12/23 10:35:35;;;;;;;3.90;3.53;;;10.50;99.90;;;;;;5065245;28;20020;-48
2022/12/23 10:38:25;;;;;;;5.35;4.38;;;10.40;99.90;;;;;;5072985;28;20035;-45
2022/12/23 10:41:09;;;;;;;5.07;4.10;;;10.40;99.90;;;;;;5073273;28;20025;-46
2022/12/23 10:44:04;;;;;;;4.35;3.92;;;10.50;99.90;;;;;;5072475;28;20028;-50
2022/12/23 10:46:49;;;;;;;3.97;3.67;;;10.50;99.90;;;;;;5073058;28;20028;-47
2022/12/23 10:49:40;;;;;;;5.57;4.18;;;10.50;99.90;;;;;;5072934;28;20266;-48
2022/12/23 10:52:13;;;;;;;5.38;3.88;;;10.40;99.90;;;;;;5072536;28;20404;-44
2022/12/23 10:54:42;;;;;;;6.07;4.50;;;10.40;99.90;;;;;;5073555;28;20078;-45
2022/12/23 10:57:09;;;;;;;6.40;4.20;;;10.40;99.90;;;;;;5072867;28;20021;-48
2022/12/23 10:59:35;;;;;;;5.85;5.25;;;10.50;99.90;;;;;;5072413;28;20127;-46
2022/12/23 11:02:13;;;;;;;7.97;5.05;;;10.50;99.90;;;;;;5071286;28;20028;-48
2022/12/23 11:04:41;;;;;;;5.93;5.00;;;10.50;99.90;;;;;;5072406;28;20108;-46
2022/12/23 11:07:20;;;;;;;5.57;4.60;;;10.50;99.90;;;;;;5072813;28;20032;-45
2022/12/23 11:09:57;;;;;;;6.97;5.40;;;10.50;99.90;;;;;;5072891;28;20017;-46
2022/12/23 11:12:35;;;;;;;8.20;5.05;;;10.50;99.90;;;;;;5072702;28;20484;-52
2022/12/23 11:15:01;;;;;;;4.70;4.30;;;10.50;99.90;;;;;;5073088;28;20032;-48
2022/12/23 11:17:29;;;;;;;7.78;4.43;;;10.50;99.90;;;;;;5072778;28;20032;-50
2022/12/23 11:20:10;;;;;;;7.43;4.93;;;10.50;99.90;;;;;;5072681;28;20028;-49
2022/12/23 11:22:52;;;;;;;6.13;4.88;;;10.60;99.90;;;;;;5073298;28;20524;-47
2022/12/23 11:25:23;;;;;;;16.90;7.70;;;10.60;99.90;;;;;;5072723;28;20064;-45
2022/12/23 11:28:11;;;;;;;153.50;95.15;;;10.60;99.90;;;;;;5073257;28;20016;-48
2022/12/23 11:30:53;;;;;;;8.85;7.97;;;10.70;99.90;;;;;;5072777;28;20127;-45
2022/12/23 11:33:31;;;;;;;9.02;6.72;;;10.70;99.90;;;;;;5072102;28;20097;-46
2022/12/23 11:36:12;;;;;;;5.38;4.85;;;10.70;99.90;;;;;;5072484;28;20024;-46
2022/12/23 11:38:49;;;;;;;4.95;4.45;;;10.70;99.90;;;;;;5053865;28;20111;-44
2022/12/23 11:41:32;;;;;;;4.88;4.47;;;10.60;99.90;;;;;;5072804;28;20099;-46
2022/12/23 11:44:02;;;;;;;3.72;3.42;;;10.60;99.90;;;;;;5070014;28;20032;-51
2022/12/23 11:46:31;;;;;;;5.05;3.60;;;10.60;99.90;;;;;;5070363;28;20115;-49
2022/12/23 11:49:13;;;;;;;4.10;3.80;;;10.60;99.90;;;;;;5071567;28;20116;-46
2022/12/23 11:51:38;;;;;;;4.82;3.75;;;10.60;99.90;;;;;;5071985;28;20029;-47
2022/12/23 11:54:04;;;;;;;7.50;5.47;;;10.60;99.90;;;;;;5071865;28;20025;-46
2022/12/23 11:56:36;;;;;;;9.57;6.60;;;10.70;99.90;;;;;;5071999;28;20039;-47
2022/12/23 11:59:24;;;;;;;6.78;5.32;;;10.60;99.90;;;;;;5071662;28;20033;-46
2022/12/23 12:01:50;;;;;;;5.63;5.13;;;10.70;99.90;;;;;;5071749;28;20104;-45
2022/12/23 12:04:21;;;;;;;7.35;5.05;;;10.70;99.90;;;;;;5071666;28;20544;-48
2022/12/23 12:06:48;;;;;;;5.85;5.13;;;10.70;99.90;;;;;;5071681;28;20069;-45
2022/12/23 12:09:15;;;;;;;7.32;5.78;;;10.70;99.90;;;;;;5071575;28;20552;-45
2022/12/23 12:11:48;;;;;;;7.60;5.75;;;10.70;99.90;;;;;;5071073;28;20047;-47
2022/12/23 12:14:47;;;;;;;8.82;5.85;;;10.80;99.90;;;;;;5071904;28;20028;-42
2022/12/23 12:17:32;;;;;;;6.75;5.45;;;10.80;99.90;;;;;;5071745;28;20050;-48
2022/12/23 12:20:32;;;;;;;10.48;5.70;;;10.80;99.90;;;;;;5071583;28;20081;-46
2022/12/23 12:23:33;;;;;;;8.50;6.07;;;10.80;99.90;;;;;;5071275;28;20032;-48
2022/12/23 12:26:17;;;;;;;8.80;6.03;;;10.90;99.90;;;;;;5071967;28;20024;-43
2022/12/23 12:28:47;;;;;;;10.23;5.82;;;10.90;99.90;;;;;;5071764;28;20083;-52
2022/12/23 12:31:24;;;;;;;9.95;6.20;;;10.90;99.90;;;;;;5071906;28;20450;-47
2022/12/23 12:33:56;;;;;;;7.63;5.50;;;10.90;99.90;;;;;;5070185;28;20028;-49
2022/12/23 12:36:32;;;;;;;6.90;5.78;;;11.00;99.90;;;;;;5066181;28;20028;-48
2022/12/23 12:38:58;;;;;;;8.10;5.53;;;11.00;99.90;;;;;;5071261;28;20047;-45
2022/12/23 12:41:35;;;;;;;10.05;6.35;;;11.00;99.90;;;;;;5071027;28;20488;-48
2022/12/23 12:44:22;;;;;;;8.00;5.60;;;11.00;99.90;;;;;;5070399;28;20040;-49
2022/12/23 12:47:08;;;;;;;15.23;7.70;;;11.00;99.90;;;;;;5070970;28;20086;-47
2022/12/23 12:49:37;;;;;;;8.38;5.35;;;11.00;99.90;;;;;;5062053;28;20056;-54
2022/12/23 12:52:19;;;;;;;7.82;6.05;;;11.10;99.90;;;;;;5070483;28;20028;-49
2022/12/23 12:54:50;;;;;;;8.65;6.22;;;11.10;99.90;;;;;;5070809;28;20492;-45
2022/12/23 12:57:18;;;;;;;7.50;5.97;;;11.10;99.90;;;;;;5071156;28;20040;-46
2022/12/23 12:59:52;;;;;;;8.00;6.53;;;11.10;99.90;;;;;;5071428;28;20477;-47
2022/12/23 13:02:42;;;;;;;17.65;10.68;;;11.20;99.90;;;;;;5070219;28;20029;-52
2022/12/23 13:05:32;;;;;;;23.38;14.80;;;11.20;99.90;;;;;;5070672;28;20036;-47
2022/12/23 13:08:13;;;;;;;13.98;10.25;;;11.20;99.90;;;;;;5071015;28;20091;-48
2022/12/23 13:10:48;;;;;;;12.77;7.88;;;11.20;99.90;;;;;;5071188;28;20021;-46
2022/12/23 13:13:17;;;;;;;;;;;11.10;99.90;;;;;;5070549;28;20052;-47
2022/12/23 13:16:05;;;;;;;9.07;7.25;;;11.20;99.90;;;;;;5070882;28;19991;-47
2022/12/23 13:18:42;;;;;;;12.10;7.40;;;11.10;99.90;;;;;;5070493;28;20032;-47
2022/12/23 13:21:39;;;;;;;8.93;7.43;;;11.20;99.90;;;;;;5071282;28;20131;-48
2022/12/23 13:24:51;;;;;;;10.98;8.10;;;11.10;99.90;;;;;;5073038;28;20082;-53
2022/12/23 13:27:22;;;;;;;8.43;7.57;;;11.10;99.90;;;;;;5070485;28;20036;-52
2022/12/23 13:29:59;;;;;;;10.02;7.97;;;11.10;99.90;;;;;;5075611;28;20032;-52
2022/12/23 13:32:52;;;;;;;9.32;7.93;;;11.10;99.90;;;;;;5073344;28;20403;-53
2022/12/23 13:35:36;;;;;;;11.73;8.55;;;11.10;99.90;;;;;;5074356;28;20086;-55
2022/12/23 13:38:33;;;;;;;9.63;8.38;;;11.20;99.90;;;;;;5073794;28;20028;-52